createdAt,value
2017-03-30T00:00:09.630Z,12.68
2017-03-30T00:01:09.627Z,12.72
2017-03-30T00:02:09.318Z,12.7
2017-03-30T00:03:09.608Z,12.7
2017-03-30T00:04:09.299Z,12.72
2017-03-30T00:05:09.598Z,12.71
2017-03-30T00:06:09.589Z,12.74
2017-03-30T00:07:09.278Z,12.65
2017-03-30T00:08:09.577Z,12.71
2017-03-30T00:09:09.574Z,12.64
2017-03-30T00:10:09.258Z,12.71
2017-03-30T00:11:09.556Z,12.7
2017-03-30T00:12:09.549Z,12.67
2017-03-30T00:13:09.545Z,12.7
2017-03-30T00:14:09.537Z,12.75
2017-03-30T00:15:09.227Z,12.7
2017-03-30T00:16:09.523Z,12.74
2017-03-30T00:17:09.515Z,12.72
2017-03-30T00:18:09.510Z,12.67
2017-03-30T00:19:09.507Z,12.71
2017-03-30T00:20:09.504Z,12.71
2017-03-30T00:21:09.488Z,12.71
2017-03-30T00:22:09.485Z,12.72
2017-03-30T00:23:09.478Z,12.7
2017-03-30T00:24:09.174Z,12.72
2017-03-30T00:25:09.467Z,12.71
2017-03-30T00:26:09.461Z,12.75
2017-03-30T00:27:09.451Z,12.78
2017-03-30T00:28:09.450Z,12.75
2017-03-30T00:29:09.436Z,12.75
2017-03-30T00:30:09.126Z,12.77
2017-03-30T00:31:09.424Z,12.78
2017-03-30T00:32:09.418Z,12.87
2017-03-30T00:33:09.414Z,12.78
2017-03-30T00:34:09.403Z,12.72
2017-03-30T00:35:09.398Z,12.74
2017-03-30T00:36:09.391Z,12.77
2017-03-30T00:37:09.386Z,12.74
2017-03-30T00:38:09.378Z,12.71
2017-03-30T00:39:09.387Z,12.72
2017-03-30T00:40:09.369Z,12.7
2017-03-30T00:41:09.359Z,12.71
2017-03-30T00:42:09.355Z,12.7
2017-03-30T00:43:09.346Z,12.71
2017-03-30T00:44:09.341Z,12.71
2017-03-30T00:45:09.335Z,12.72
2017-03-30T00:46:09.330Z,12.7
2017-03-30T00:47:09.318Z,12.72
2017-03-30T00:48:09.010Z,12.67
2017-03-30T00:49:09.305Z,12.74
2017-03-30T00:50:08.997Z,12.74
2017-03-30T00:51:09.293Z,12.65
2017-03-30T00:52:09.285Z,12.68
2017-03-30T00:53:09.281Z,12.68
2017-03-30T00:54:09.271Z,12.71
2017-03-30T00:55:09.267Z,12.71
2017-03-30T00:56:09.259Z,12.7
2017-03-30T00:57:09.254Z,12.72
2017-03-30T00:58:08.943Z,12.71
2017-03-30T00:59:09.241Z,12.75
2017-03-30T01:00:09.234Z,12.67
2017-03-30T01:01:08.924Z,12.6
2017-03-30T01:02:09.219Z,12.72
2017-03-30T01:03:09.213Z,12.67
2017-03-30T01:04:09.205Z,12.75
2017-03-30T01:05:09.203Z,12.71
2017-03-30T01:06:09.192Z,12.7
2017-03-30T01:07:08.919Z,12.77
2017-03-30T01:08:09.179Z,12.71
2017-03-30T01:09:09.172Z,12.71
2017-03-30T01:10:09.167Z,12.78
2017-03-30T01:11:09.160Z,12.78
2017-03-30T01:12:09.155Z,12.7
2017-03-30T01:13:09.149Z,12.74
2017-03-30T01:14:09.142Z,12.77
2017-03-30T01:15:09.135Z,12.74
2017-03-30T01:16:09.126Z,12.71
2017-03-30T01:17:09.121Z,12.75
2017-03-30T01:18:09.115Z,12.75
2017-03-30T01:19:09.109Z,12.78
2017-03-30T01:20:09.102Z,12.74
2017-03-30T01:21:09.096Z,12.78
2017-03-30T01:22:09.089Z,12.74
2017-03-30T01:23:08.776Z,12.72
2017-03-30T01:24:09.074Z,12.68
2017-03-30T01:25:08.766Z,12.67
2017-03-30T01:26:08.756Z,12.71
2017-03-30T01:27:09.055Z,12.7
2017-03-30T01:28:09.048Z,12.72
2017-03-30T01:29:09.041Z,12.72
2017-03-30T01:30:09.036Z,12.72
2017-03-30T01:31:09.027Z,12.74
2017-03-30T01:32:09.023Z,12.67
2017-03-30T01:33:09.013Z,12.65
2017-03-30T01:34:09.013Z,12.59
2017-03-30T01:35:09.003Z,12.59
2017-03-30T01:36:08.997Z,12.53
2017-03-30T01:37:08.991Z,12.5
2017-03-30T01:38:08.980Z,12.46
2017-03-30T01:39:08.973Z,12.56
2017-03-30T01:40:08.975Z,12.52
2017-03-30T01:41:08.960Z,12.49
2017-03-30T01:42:08.954Z,12.47
2017-03-30T01:43:08.947Z,12.46
2017-03-30T01:44:08.940Z,12.46
2017-03-30T01:45:08.933Z,12.49
2017-03-30T01:46:08.651Z,12.49
2017-03-30T01:47:08.922Z,12.5
2017-03-30T01:48:08.911Z,12.46
2017-03-30T01:49:08.911Z,12.41
2017-03-30T01:50:08.623Z,12.46
2017-03-30T01:51:08.893Z,12.32
2017-03-30T01:52:08.888Z,12.38
2017-03-30T01:53:08.881Z,12.28
2017-03-30T01:54:08.874Z,12.31
2017-03-30T01:55:08.873Z,12.28
2017-03-30T01:56:08.861Z,12.16
2017-03-30T01:57:08.852Z,12.27
2017-03-30T01:58:08.845Z,12.14
2017-03-30T01:59:08.839Z,12.13
2017-03-30T02:00:08.527Z,12.12
2017-03-30T02:01:08.825Z,12.05
2017-03-30T02:02:08.513Z,12.04
2017-03-30T02:03:08.809Z,12.14
2017-03-30T02:04:08.805Z,12.04
2017-03-30T02:05:08.495Z,12.04
2017-03-30T02:06:08.790Z,11.96
2017-03-30T02:07:08.787Z,12.05
2017-03-30T02:08:08.776Z,12.02
2017-03-30T02:09:08.768Z,11.95
2017-03-30T02:10:08.762Z,11.98
2017-03-30T02:11:08.452Z,11.98
2017-03-30T02:12:08.445Z,12.04
2017-03-30T02:13:08.742Z,12.02
2017-03-30T02:14:08.736Z,12.09
2017-03-30T02:15:08.732Z,12.1
2017-03-30T02:16:08.723Z,12.16
2017-03-30T02:17:08.714Z,12.1
2017-03-30T02:18:08.707Z,12.17
2017-03-30T02:19:08.397Z,12.19
2017-03-30T02:20:08.391Z,12.21
2017-03-30T02:21:08.685Z,12.27
2017-03-30T02:22:08.681Z,12.23
2017-03-30T02:23:08.924Z,12.2
2017-03-30T02:24:08.362Z,12.24
2017-03-30T02:25:08.355Z,12.19
2017-03-30T02:26:08.649Z,12.23
2017-03-30T02:27:08.643Z,12.28
2017-03-30T02:28:08.635Z,12.27
2017-03-30T02:29:08.628Z,12.35
2017-03-30T02:30:08.321Z,12.34
2017-03-30T02:31:08.618Z,12.28
2017-03-30T02:32:08.308Z,12.24
2017-03-30T02:33:08.603Z,12.27
2017-03-30T02:34:08.596Z,12.09
2017-03-30T02:35:08.290Z,12.1
2017-03-30T02:36:08.581Z,12.07
2017-03-30T02:37:08.271Z,11.98
2017-03-30T02:38:08.570Z,11.95
2017-03-30T02:39:08.559Z,11.99
2017-03-30T02:40:08.555Z,11.82
2017-03-30T02:41:08.243Z,11.8
2017-03-30T02:42:08.238Z,11.79
2017-03-30T02:43:08.532Z,11.8
2017-03-30T02:44:08.528Z,11.78
2017-03-30T02:45:08.218Z,11.78
2017-03-30T02:46:08.514Z,11.85
2017-03-30T02:47:08.201Z,11.88
2017-03-30T02:48:08.193Z,11.79
2017-03-30T02:49:08.490Z,11.83
2017-03-30T02:50:08.182Z,11.83
2017-03-30T02:51:08.173Z,11.8
2017-03-30T02:52:08.471Z,11.78
2017-03-30T02:53:08.464Z,11.79
2017-03-30T02:54:08.455Z,11.67
2017-03-30T02:55:08.448Z,11.65
2017-03-30T02:56:08.139Z,11.7
2017-03-30T02:57:08.432Z,11.65
2017-03-30T02:58:08.427Z,11.6
2017-03-30T02:59:08.419Z,11.55
2017-03-30T03:00:08.412Z,11.61
2017-03-30T03:01:08.404Z,11.58
2017-03-30T03:02:08.093Z,11.55
2017-03-30T03:03:08.392Z,11.55
2017-03-30T03:04:08.081Z,11.6
2017-03-30T03:05:08.376Z,11.51
2017-03-30T03:06:08.063Z,11.64
2017-03-30T03:07:08.366Z,11.76
2017-03-30T03:08:08.353Z,11.78
2017-03-30T03:09:08.346Z,11.83
2017-03-30T03:10:08.337Z,11.85
2017-03-30T03:11:08.331Z,11.86
2017-03-30T03:12:08.322Z,11.83
2017-03-30T03:13:08.317Z,11.76
2017-03-30T03:14:08.010Z,11.88
2017-03-30T03:15:08.305Z,11.8
2017-03-30T03:16:08.292Z,11.86
2017-03-30T03:17:08.294Z,11.82
2017-03-30T03:18:08.282Z,11.83
2017-03-30T03:19:08.277Z,11.94
2017-03-30T03:20:08.266Z,11.78
2017-03-30T03:21:08.261Z,11.95
2017-03-30T03:22:08.253Z,11.99
2017-03-30T03:23:08.244Z,11.91
2017-03-30T03:24:08.237Z,11.99
2017-03-30T03:25:08.234Z,12.01
2017-03-30T03:26:08.228Z,11.98
2017-03-30T03:27:07.912Z,12.02
2017-03-30T03:28:08.209Z,12.01
2017-03-30T03:29:08.200Z,11.96
2017-03-30T03:30:08.197Z,12.1
2017-03-30T03:31:08.189Z,12.01
2017-03-30T03:32:07.877Z,12.12
2017-03-30T03:33:08.173Z,11.99
2017-03-30T03:34:08.165Z,12.05
2017-03-30T03:35:07.855Z,12.14
2017-03-30T03:36:07.850Z,12.19
2017-03-30T03:37:08.145Z,12.14
2017-03-30T03:38:07.835Z,12.14
2017-03-30T03:39:08.128Z,12.1
2017-03-30T03:40:07.519Z,12.12
2017-03-30T03:41:08.114Z,12.13
2017-03-30T03:42:08.108Z,12.17
2017-03-30T03:43:08.101Z,12.19
2017-03-30T03:44:07.791Z,12.23
2017-03-30T03:45:08.091Z,12.16
2017-03-30T03:46:08.081Z,12.05
2017-03-30T03:47:08.078Z,12.2
2017-03-30T03:48:08.068Z,12.16
2017-03-30T03:49:08.065Z,12.21
2017-03-30T03:50:08.054Z,12.21
2017-03-30T03:51:08.047Z,12.23
2017-03-30T03:52:07.736Z,12.24
2017-03-30T03:53:08.034Z,12.29
2017-03-30T03:54:08.026Z,12.24
2017-03-30T03:55:08.019Z,12.37
2017-03-30T03:56:08.015Z,12.28
2017-03-30T03:57:07.702Z,12.28
2017-03-30T03:58:08.003Z,12.24
2017-03-30T03:59:07.993Z,12.35
2017-03-30T04:00:07.992Z,12.28
2017-03-30T04:01:07.976Z,12.29
2017-03-30T04:02:07.668Z,12.34
2017-03-30T04:03:07.964Z,12.39
2017-03-30T04:04:07.957Z,12.34
2017-03-30T04:05:07.949Z,12.47
2017-03-30T04:06:07.641Z,12.42
2017-03-30T04:07:07.937Z,12.32
2017-03-30T04:08:07.931Z,12.39
2017-03-30T04:09:07.924Z,12.46
2017-03-30T04:10:07.611Z,12.42
2017-03-30T04:11:07.910Z,12.41
2017-03-30T04:12:07.901Z,12.45
2017-03-30T04:13:07.599Z,12.42
2017-03-30T04:14:07.886Z,12.39
2017-03-30T04:15:07.619Z,12.46
2017-03-30T04:16:07.874Z,12.47
2017-03-30T04:17:07.867Z,12.5
2017-03-30T04:18:07.860Z,12.5
2017-03-30T04:19:07.853Z,12.46
2017-03-30T04:20:07.542Z,12.42
2017-03-30T04:21:07.852Z,12.42
2017-03-30T04:22:07.533Z,12.45
2017-03-30T04:23:07.826Z,12.42
2017-03-30T04:24:07.818Z,12.49
2017-03-30T04:25:07.813Z,12.49
2017-03-30T04:26:07.805Z,12.46
2017-03-30T04:27:07.801Z,12.47
2017-03-30T04:28:07.488Z,12.47
2017-03-30T04:29:07.783Z,12.46
2017-03-30T04:30:07.776Z,12.46
2017-03-30T04:31:07.772Z,12.47
2017-03-30T04:32:07.764Z,12.42
2017-03-30T04:33:07.761Z,12.5
2017-03-30T04:34:07.755Z,12.46
2017-03-30T04:35:07.748Z,12.42
2017-03-30T04:36:07.736Z,12.45
2017-03-30T04:37:07.731Z,12.46
2017-03-30T04:38:07.723Z,12.46
2017-03-30T04:39:07.415Z,12.45
2017-03-30T04:40:07.711Z,12.42
2017-03-30T04:41:07.739Z,12.45
2017-03-30T04:42:07.698Z,12.47
2017-03-30T04:43:07.689Z,12.5
2017-03-30T04:44:07.683Z,12.42
2017-03-30T04:45:07.373Z,12.45
2017-03-30T04:46:07.670Z,12.47
2017-03-30T04:47:07.661Z,12.46
2017-03-30T04:48:07.656Z,12.54
2017-03-30T04:49:07.650Z,12.47
2017-03-30T04:50:07.644Z,12.5
2017-03-30T04:51:07.639Z,12.54
2017-03-30T04:52:07.634Z,12.59
2017-03-30T04:53:07.622Z,12.56
2017-03-30T04:54:07.618Z,12.53
2017-03-30T04:55:07.612Z,12.57
2017-03-30T04:56:07.605Z,12.5
2017-03-30T04:57:07.599Z,12.47
2017-03-30T04:58:07.587Z,12.47
2017-03-30T04:59:07.584Z,12.47
2017-03-30T05:00:07.575Z,12.47
2017-03-30T05:01:07.571Z,12.42
2017-03-30T05:02:07.583Z,12.46
2017-03-30T05:03:07.556Z,12.46
2017-03-30T05:04:07.548Z,12.47
2017-03-30T05:05:07.244Z,12.46
2017-03-30T05:06:07.230Z,12.56
2017-03-30T05:07:07.529Z,12.53
2017-03-30T05:08:07.523Z,12.6
2017-03-30T05:09:07.517Z,12.57
2017-03-30T05:10:07.508Z,12.6
2017-03-30T05:11:07.509Z,12.67
2017-03-30T05:12:07.505Z,12.67
2017-03-30T05:13:07.489Z,12.65
2017-03-30T05:14:07.513Z,12.68
2017-03-30T05:15:07.473Z,12.59
2017-03-30T05:16:07.469Z,12.67
2017-03-30T05:17:07.462Z,12.68
2017-03-30T05:18:07.457Z,12.65
2017-03-30T05:19:07.448Z,12.59
2017-03-30T05:20:07.440Z,12.62
2017-03-30T05:21:07.433Z,12.68
2017-03-30T05:22:07.129Z,12.7
2017-03-30T05:23:07.422Z,12.68
2017-03-30T05:24:07.413Z,12.71
2017-03-30T05:25:07.408Z,12.7
2017-03-30T05:26:07.403Z,12.67
2017-03-30T05:27:07.393Z,12.62
2017-03-30T05:28:07.387Z,12.7
2017-03-30T05:29:07.387Z,12.68
2017-03-30T05:30:07.381Z,12.68
2017-03-30T05:31:07.366Z,12.68
2017-03-30T05:32:07.365Z,12.7
2017-03-30T05:33:07.355Z,12.71
2017-03-30T05:34:07.352Z,12.7
2017-03-30T05:35:07.341Z,12.7
2017-03-30T05:36:07.333Z,12.7
2017-03-30T05:37:07.329Z,12.7
2017-03-30T05:38:07.319Z,12.68
2017-03-30T05:39:07.314Z,12.74
2017-03-30T05:40:07.307Z,12.65
2017-03-30T05:41:06.998Z,12.67
2017-03-30T05:42:07.298Z,12.67
2017-03-30T05:43:07.287Z,12.71
2017-03-30T05:44:06.978Z,12.7
2017-03-30T05:45:06.973Z,12.71
2017-03-30T05:46:06.967Z,12.67
2017-03-30T05:47:07.263Z,12.68
2017-03-30T05:48:07.259Z,12.6
2017-03-30T05:49:07.246Z,12.64
2017-03-30T05:50:07.242Z,12.65
2017-03-30T05:51:07.233Z,12.74
2017-03-30T05:52:07.232Z,12.68
2017-03-30T05:53:07.220Z,12.65
2017-03-30T05:54:07.213Z,12.7
2017-03-30T05:55:07.206Z,12.75
2017-03-30T05:56:07.204Z,12.72
2017-03-30T05:57:07.194Z,12.72
2017-03-30T05:58:07.202Z,12.74
2017-03-30T05:59:07.182Z,12.74
2017-03-30T06:00:07.174Z,12.83
2017-03-30T06:01:07.172Z,12.86
2017-03-30T06:02:07.160Z,12.82
2017-03-30T06:03:07.154Z,12.83
2017-03-30T06:04:07.149Z,12.89
2017-03-30T06:05:07.144Z,12.83
2017-03-30T06:06:07.139Z,12.95
2017-03-30T06:07:07.127Z,12.93
2017-03-30T06:08:07.125Z,12.9
2017-03-30T06:09:07.118Z,12.87
2017-03-30T06:10:07.108Z,12.93
2017-03-30T06:11:07.100Z,13.01
2017-03-30T06:12:07.095Z,12.95
2017-03-30T06:13:07.092Z,13
2017-03-30T06:14:07.083Z,13.01
2017-03-30T06:15:07.078Z,13.03
2017-03-30T06:16:07.069Z,13.01
2017-03-30T06:17:07.088Z,13.04
2017-03-30T06:18:07.059Z,13.04
2017-03-30T06:19:07.056Z,13.08
2017-03-30T06:20:07.045Z,13.04
2017-03-30T06:21:07.038Z,13.12
2017-03-30T06:22:07.036Z,13.1
2017-03-30T06:23:07.030Z,13.14
2017-03-30T06:24:07.020Z,13.15
2017-03-30T06:25:07.015Z,13.15
2017-03-30T06:26:07.006Z,13.17
2017-03-30T06:27:07.001Z,13.07
2017-03-30T06:28:06.995Z,13.11
2017-03-30T06:29:06.987Z,13.14
2017-03-30T06:30:06.983Z,13.19
2017-03-30T06:31:06.978Z,13.22
2017-03-30T06:32:06.973Z,13.25
2017-03-30T06:33:06.961Z,13.28
2017-03-30T06:34:06.959Z,13.39
2017-03-30T06:35:06.952Z,13.36
2017-03-30T06:36:06.949Z,13.48
2017-03-30T06:37:06.937Z,13.48
2017-03-30T06:38:06.932Z,13.51
2017-03-30T06:39:06.930Z,13.59
2017-03-30T06:40:06.918Z,13.57
2017-03-30T06:41:06.913Z,13.63
2017-03-30T06:42:06.920Z,13.73
2017-03-30T06:43:06.902Z,13.75
2017-03-30T06:44:06.895Z,13.73
2017-03-30T06:45:06.894Z,13.82
2017-03-30T06:46:06.884Z,13.85
2017-03-30T06:47:06.882Z,13.87
2017-03-30T06:48:06.873Z,13.85
2017-03-30T06:49:06.866Z,13.82
2017-03-30T06:50:06.568Z,13.92
2017-03-30T06:51:06.855Z,13.92
2017-03-30T06:52:06.854Z,13.84
2017-03-30T06:53:06.842Z,13.87
2017-03-30T06:54:06.836Z,13.91
2017-03-30T06:55:06.835Z,13.88
2017-03-30T06:56:06.825Z,13.88
2017-03-30T06:57:06.820Z,13.89
2017-03-30T06:58:06.818Z,13.95
2017-03-30T06:59:06.808Z,13.91
2017-03-30T07:00:06.808Z,13.95
2017-03-30T07:01:06.801Z,13.81
2017-03-30T07:02:06.791Z,13.99
2017-03-30T07:03:06.786Z,13.92
2017-03-30T07:04:06.785Z,13.91
2017-03-30T07:05:06.778Z,13.88
2017-03-30T07:06:06.771Z,14.03
2017-03-30T07:07:06.767Z,14.03
2017-03-30T07:08:06.454Z,14.04
2017-03-30T07:09:06.760Z,14.03
2017-03-30T07:10:06.746Z,14.07
2017-03-30T07:11:06.743Z,14.06
2017-03-30T07:12:06.737Z,14.07
2017-03-30T07:13:06.730Z,14.04
2017-03-30T07:14:06.724Z,14.04
2017-03-30T07:15:06.719Z,14.04
2017-03-30T07:16:06.713Z,14.03
2017-03-30T07:17:06.706Z,14.03
2017-03-30T07:18:06.703Z,14.02
2017-03-30T07:19:06.696Z,14.06
2017-03-30T07:20:06.692Z,14.04
2017-03-30T07:21:06.686Z,14.04
2017-03-30T07:22:06.678Z,14.12
2017-03-30T07:23:06.674Z,14.12
2017-03-30T07:24:06.674Z,14.14
2017-03-30T07:25:06.660Z,14.09
2017-03-30T07:26:06.657Z,14.21
2017-03-30T07:27:06.656Z,14.2
2017-03-30T07:28:06.646Z,14.17
2017-03-30T07:29:06.639Z,14.21
2017-03-30T07:30:06.640Z,14.22
2017-03-30T07:31:06.627Z,14.21
2017-03-30T07:32:06.318Z,14.36
2017-03-30T07:33:06.616Z,14.27
2017-03-30T07:34:06.861Z,14.32
2017-03-30T07:35:06.607Z,14.35
2017-03-30T07:36:06.606Z,14.33
2017-03-30T07:37:06.598Z,14.45
2017-03-30T07:38:06.589Z,14.45
2017-03-30T07:39:06.282Z,14.45
2017-03-30T07:40:06.577Z,14.54
2017-03-30T07:41:06.274Z,14.54
2017-03-30T07:42:06.568Z,14.52
2017-03-30T07:43:06.563Z,14.57
2017-03-30T07:44:06.559Z,14.68
2017-03-30T07:45:06.558Z,14.68
2017-03-30T07:46:06.547Z,14.81
2017-03-30T07:47:06.545Z,14.83
2017-03-30T07:48:06.537Z,14.88
2017-03-30T07:49:06.533Z,14.84
2017-03-30T07:50:06.525Z,14.83
2017-03-30T07:51:06.528Z,14.94
2017-03-30T07:52:06.518Z,14.92
2017-03-30T07:53:06.515Z,15.03
2017-03-30T07:54:06.505Z,15.02
2017-03-30T07:55:06.505Z,15.07
2017-03-30T07:56:06.497Z,15.06
2017-03-30T07:57:06.495Z,15.07
2017-03-30T07:58:06.487Z,15.1
2017-03-30T07:59:06.482Z,15.16
2017-03-30T08:00:06.477Z,15.16
2017-03-30T08:01:05.865Z,15.2
2017-03-30T08:02:06.475Z,15.2
2017-03-30T08:03:06.460Z,15.27
2017-03-30T08:04:06.456Z,15.34
2017-03-30T08:05:06.453Z,15.32
2017-03-30T08:06:06.452Z,15.41
2017-03-30T08:07:06.143Z,15.47
2017-03-30T08:08:06.438Z,15.54
2017-03-30T08:09:06.436Z,15.56
2017-03-30T08:10:06.431Z,15.68
2017-03-30T08:11:06.425Z,15.69
2017-03-30T08:12:06.424Z,15.74
2017-03-30T08:13:06.416Z,15.78
2017-03-30T08:14:06.416Z,15.87
2017-03-30T08:15:06.407Z,15.89
2017-03-30T08:16:06.405Z,15.92
2017-03-30T08:17:05.792Z,15.97
2017-03-30T08:18:05.786Z,16.04
2017-03-30T08:19:06.391Z,15.96
2017-03-30T08:20:06.388Z,16.05
2017-03-30T08:21:06.383Z,16.09
2017-03-30T08:22:06.378Z,16.2
2017-03-30T08:23:06.375Z,16.27
2017-03-30T08:24:06.375Z,16.25
2017-03-30T08:25:06.366Z,16.35
2017-03-30T08:26:06.362Z,16.41
2017-03-30T08:27:06.359Z,16.45
2017-03-30T08:28:06.050Z,16.49
2017-03-30T08:29:06.356Z,16.49
2017-03-30T08:31:06.347Z,16.53
2017-03-30T08:32:06.040Z,16.7
2017-03-30T08:33:06.336Z,16.68
2017-03-30T08:34:06.330Z,16.71
2017-03-30T08:35:06.028Z,16.76
2017-03-30T08:36:06.675Z,16.81
2017-03-30T08:37:06.319Z,16.83
2017-03-30T08:38:06.319Z,16.82
2017-03-30T08:39:06.313Z,16.81
2017-03-30T08:40:06.313Z,16.88
2017-03-30T08:41:06.003Z,16.78
2017-03-30T08:42:06.303Z,16.85
2017-03-30T08:43:06.300Z,16.94
2017-03-30T08:44:06.300Z,16.86
2017-03-30T08:45:06.290Z,16.88
2017-03-30T08:46:06.290Z,16.91
2017-03-30T08:47:05.982Z,16.97
2017-03-30T08:48:06.281Z,16.96
2017-03-30T08:49:05.973Z,17.01
2017-03-30T08:50:06.277Z,17.11
2017-03-30T08:51:06.271Z,17.16
2017-03-30T08:52:06.269Z,17.12
2017-03-30T08:54:06.464Z,17.19
2017-03-30T08:55:08.682Z,17.12
2017-03-30T08:56:06.252Z,17.23
2017-03-30T08:57:05.646Z,17.22
2017-03-30T08:58:06.249Z,17.21
2017-03-30T08:59:05.940Z,17.18
2017-03-30T09:00:05.935Z,17.11
2017-03-30T09:01:06.237Z,17.06
2017-03-30T09:02:05.928Z,17.12
2017-03-30T09:03:06.237Z,17.06
2017-03-30T09:04:05.927Z,17.07
2017-03-30T09:05:06.224Z,17.03
2017-03-30T09:06:06.219Z,17.01
2017-03-30T09:07:06.165Z,16.98
2017-03-30T09:08:05.906Z,16.98
2017-03-30T09:09:06.207Z,16.88
2017-03-30T09:10:06.203Z,16.75
2017-03-30T09:11:06.200Z,16.7
2017-03-30T09:12:06.196Z,16.7
2017-03-30T09:13:06.193Z,16.61
2017-03-30T09:14:06.191Z,16.6
2017-03-30T09:15:05.606Z,16.53
2017-03-30T09:16:05.877Z,16.43
2017-03-30T09:17:06.179Z,16.42
2017-03-30T09:18:06.538Z,16.38
2017-03-30T09:19:06.170Z,16.38
2017-03-30T09:20:05.862Z,16.33
2017-03-30T09:21:05.860Z,16.33
2017-03-30T09:22:05.858Z,16.38
2017-03-30T09:23:05.855Z,16.34
2017-03-30T09:24:05.849Z,16.25
2017-03-30T09:25:06.146Z,16.2
2017-03-30T09:26:06.143Z,16.24
2017-03-30T09:27:06.141Z,16.17
2017-03-30T09:28:06.142Z,16.21
2017-03-30T09:29:06.130Z,16.24
2017-03-30T09:30:05.824Z,16.24
2017-03-30T09:31:06.124Z,16.23
2017-03-30T09:32:06.120Z,16.25
2017-03-30T09:33:06.116Z,16.27
2017-03-30T09:34:05.810Z,16.33
2017-03-30T09:35:05.805Z,16.21
2017-03-30T09:36:06.107Z,16.33
2017-03-30T09:37:06.104Z,16.24
2017-03-30T09:38:05.793Z,16.34
2017-03-30T09:39:06.093Z,16.3
2017-03-30T09:40:06.086Z,16.34
2017-03-30T09:41:05.784Z,16.3
2017-03-30T09:42:05.775Z,16.25
2017-03-30T09:43:05.773Z,16.23
2017-03-30T09:44:06.072Z,16.38
2017-03-30T09:45:05.767Z,16.35
2017-03-30T09:46:06.064Z,16.39
2017-03-30T09:47:05.960Z,16.57
2017-03-30T09:48:05.758Z,16.63
2017-03-30T09:49:05.751Z,16.85
2017-03-30T09:50:05.747Z,16.86
2017-03-30T09:51:05.742Z,17
2017-03-30T09:52:06.044Z,17.04
2017-03-30T09:53:05.734Z,17.15
2017-03-30T09:54:06.037Z,17.16
2017-03-30T09:55:05.727Z,17.23
2017-03-30T09:56:06.031Z,17.31
2017-03-30T09:57:05.727Z,17.38
2017-03-30T09:58:06.019Z,17.46
2017-03-30T09:59:06.020Z,17.55
2017-03-30T10:00:06.016Z,17.64
2017-03-30T10:01:06.011Z,17.75
2017-03-30T10:02:06.008Z,17.82
2017-03-30T10:03:06.010Z,17.92
2017-03-30T10:04:06.006Z,18.1
2017-03-30T10:05:05.695Z,18.2
2017-03-30T10:06:06.002Z,18.36
2017-03-30T10:07:06.001Z,18.55
2017-03-30T10:08:05.995Z,18.75
2017-03-30T10:09:05.990Z,18.94
2017-03-30T10:10:06.598Z,19.1
2017-03-30T10:13:05.676Z,19.62
2017-03-30T10:14:05.981Z,19.76
2017-03-30T10:15:05.978Z,19.88
2017-03-30T10:16:05.672Z,20.03
2017-03-30T10:17:05.974Z,20.14
2017-03-30T10:18:05.670Z,20.24
2017-03-30T10:19:05.970Z,20.52
2017-03-30T10:20:06.002Z,20.59
2017-03-30T10:21:05.966Z,20.72
2017-03-30T10:22:05.972Z,20.8
2017-03-30T10:23:05.965Z,20.97
2017-03-30T10:24:05.965Z,20.99
2017-03-30T10:25:05.964Z,21.12
2017-03-30T10:26:05.969Z,21.16
2017-03-30T10:27:05.963Z,21.22
2017-03-30T10:28:05.967Z,21.34
2017-03-30T10:29:05.965Z,21.38
2017-03-30T10:30:05.965Z,21.54
2017-03-30T10:31:05.964Z,21.65
2017-03-30T10:32:05.672Z,21.8
2017-03-30T10:33:05.968Z,21.86
2017-03-30T10:34:05.966Z,21.84
2017-03-30T10:35:05.973Z,21.86
2017-03-30T10:36:05.972Z,21.91
2017-03-30T10:37:05.975Z,21.94
2017-03-30T10:38:06.005Z,21.88
2017-03-30T10:39:05.973Z,21.9
2017-03-30T10:40:05.972Z,21.82
2017-03-30T10:41:05.973Z,21.77
2017-03-30T10:42:05.671Z,21.79
2017-03-30T10:43:05.978Z,21.8
2017-03-30T10:44:05.979Z,21.75
2017-03-30T10:45:05.977Z,21.65
2017-03-30T10:46:06.012Z,21.77
2017-03-30T10:47:05.979Z,21.75
2017-03-30T10:48:05.983Z,21.9
2017-03-30T10:49:05.982Z,21.91
2017-03-30T10:50:05.984Z,22
2017-03-30T10:51:05.985Z,21.98
2017-03-30T10:52:05.985Z,22.03
2017-03-30T10:53:05.985Z,22.03
2017-03-30T10:54:05.987Z,22.12
2017-03-30T10:55:05.686Z,22.22
2017-03-30T10:56:05.992Z,22.35
2017-03-30T10:57:05.991Z,22.4
2017-03-30T10:58:05.992Z,22.46
2017-03-30T10:59:05.998Z,22.64
2017-03-30T11:00:06.013Z,22.79
2017-03-30T11:01:05.698Z,22.85
2017-03-30T11:02:06.000Z,22.91
2017-03-30T11:03:06.001Z,22.82
2017-03-30T11:04:06.003Z,22.79
2017-03-30T11:05:06.006Z,22.85
2017-03-30T11:06:05.712Z,22.86
2017-03-30T11:07:06.012Z,22.94
2017-03-30T11:08:05.707Z,22.9
2017-03-30T11:09:06.017Z,22.91
2017-03-30T11:10:06.014Z,23
2017-03-30T11:11:05.715Z,22.91
2017-03-30T11:12:06.020Z,22.92
2017-03-30T11:13:05.717Z,22.88
2017-03-30T11:14:06.033Z,22.98
2017-03-30T11:15:06.026Z,22.92
2017-03-30T11:16:06.028Z,22.95
2017-03-30T11:19:06.033Z,23.02
2017-03-30T11:20:06.036Z,23.05
2017-03-30T11:21:05.735Z,23.07
2017-03-30T11:22:05.742Z,23.01
2017-03-30T11:23:06.038Z,22.91
2017-03-30T11:24:06.043Z,22.95
2017-03-30T11:25:05.737Z,22.92
2017-03-30T11:26:06.046Z,22.86
2017-03-30T11:27:06.046Z,22.91
2017-03-30T11:28:06.047Z,22.88
2017-03-30T11:29:06.047Z,22.86
2017-03-30T11:30:06.051Z,22.85
2017-03-30T11:31:05.747Z,22.83
2017-03-30T11:32:05.750Z,22.86
2017-03-30T11:33:06.053Z,22.92
2017-03-30T11:34:05.757Z,22.86
2017-03-30T11:35:06.060Z,22.75
2017-03-30T11:36:06.058Z,22.75
2017-03-30T11:37:05.762Z,22.61
2017-03-30T11:38:06.063Z,22.6
2017-03-30T11:39:06.068Z,22.51
2017-03-30T11:40:06.066Z,22.49
2017-03-30T11:41:06.068Z,22.49
2017-03-30T11:42:06.066Z,22.47
2017-03-30T11:43:06.071Z,22.37
2017-03-30T11:44:06.071Z,22.27
2017-03-30T11:45:05.770Z,22.22
2017-03-30T11:46:06.086Z,22.05
2017-03-30T11:47:06.082Z,22.05
2017-03-30T11:48:06.077Z,21.94
2017-03-30T11:49:06.074Z,21.88
2017-03-30T11:50:06.079Z,21.83
2017-03-30T11:51:06.079Z,21.9
2017-03-30T11:52:06.078Z,21.83
2017-03-30T11:53:06.084Z,21.79
2017-03-30T11:54:05.775Z,21.74
2017-03-30T11:55:06.084Z,21.71
2017-03-30T11:56:06.082Z,21.53
2017-03-30T11:57:06.084Z,21.5
2017-03-30T11:58:06.081Z,21.35
2017-03-30T11:59:06.090Z,21.35
2017-03-30T12:00:05.782Z,21.32
2017-03-30T12:01:06.087Z,21.37
2017-03-30T12:02:06.085Z,21.38
2017-03-30T12:03:06.085Z,21.32
2017-03-30T12:04:05.780Z,21.34
2017-03-30T12:05:06.091Z,21.4
2017-03-30T12:06:06.091Z,21.35
2017-03-30T12:07:06.085Z,21.35
2017-03-30T12:08:06.086Z,21.47
2017-03-30T12:09:06.086Z,21.53
2017-03-30T12:10:06.089Z,21.54
2017-03-30T12:11:06.088Z,21.62
2017-03-30T12:12:06.092Z,21.59
2017-03-30T12:13:06.086Z,21.65
2017-03-30T12:14:05.784Z,21.72
2017-03-30T12:15:05.784Z,21.84
2017-03-30T12:16:05.784Z,21.98
2017-03-30T12:17:06.088Z,22
2017-03-30T12:18:06.089Z,22.21
2017-03-30T12:19:06.094Z,22.25
2017-03-30T12:20:06.092Z,22.3
2017-03-30T12:21:06.094Z,22.4
2017-03-30T12:22:06.093Z,22.39
2017-03-30T12:23:06.098Z,22.47
2017-03-30T12:24:06.094Z,22.6
2017-03-30T12:25:05.794Z,22.54
2017-03-30T12:26:06.099Z,22.6
2017-03-30T12:27:05.797Z,22.64
2017-03-30T12:28:06.097Z,22.62
2017-03-30T12:29:06.100Z,22.51
2017-03-30T12:30:05.799Z,22.47
2017-03-30T12:31:06.103Z,22.52
2017-03-30T12:32:06.104Z,22.35
2017-03-30T12:33:06.104Z,22.27
2017-03-30T12:34:06.104Z,22.21
2017-03-30T12:35:06.107Z,22.12
2017-03-30T12:36:06.107Z,22.03
2017-03-30T12:37:06.108Z,21.88
2017-03-30T12:38:06.108Z,21.86
2017-03-30T12:39:05.805Z,21.65
2017-03-30T12:40:06.111Z,21.65
2017-03-30T12:41:05.808Z,21.53
2017-03-30T12:42:06.115Z,21.46
2017-03-30T12:43:06.118Z,21.43
2017-03-30T12:44:06.110Z,21.34
2017-03-30T12:45:06.115Z,21.28
2017-03-30T12:46:05.809Z,21.27
2017-03-30T12:47:05.842Z,21.16
2017-03-30T12:48:06.114Z,21.09
2017-03-30T12:49:06.114Z,20.99
2017-03-30T12:50:06.114Z,21.01
2017-03-30T12:51:06.114Z,20.79
2017-03-30T12:52:06.115Z,20.84
2017-03-30T12:53:06.113Z,20.88
2017-03-30T12:54:06.111Z,20.91
2017-03-30T12:55:06.113Z,20.88
2017-03-30T12:56:06.112Z,20.99
2017-03-30T12:57:06.111Z,21.04
2017-03-30T12:58:06.117Z,21.13
2017-03-30T12:59:06.112Z,21.13
2017-03-30T13:00:05.503Z,21.14
2017-03-30T13:01:06.113Z,21.24